createdAt,value
2018-05-24T00:00:37.460Z,101913.40
2018-05-24T00:03:05.122Z,101917.05
2018-05-24T00:05:33.244Z,101924.66
2018-05-24T00:08:00.791Z,101924.13
2018-05-24T00:10:28.289Z,101930.49
2018-05-24T00:12:55.828Z,101929.24
2018-05-24T00:15:23.598Z,101931.11
2018-05-24T00:17:51.138Z,101926.56
2018-05-24T00:20:18.655Z,101926.04
2018-05-24T00:22:46.213Z,101933.95
2018-05-24T00:25:13.722Z,101931.06
2018-05-24T00:27:41.246Z,101934.50
2018-05-24T00:30:08.748Z,101934.62
2018-05-24T00:32:36.296Z,101933.05
2018-05-24T00:35:03.843Z,101941.91
2018-05-24T00:37:31.641Z,101939.72
2018-05-24T00:39:59.186Z,101938.17
2018-05-24T00:42:26.715Z,101948.48
2018-05-24T00:44:54.275Z,101942.36
2018-05-24T00:47:21.814Z,101943.50
2018-05-24T00:49:49.322Z,101945.48
2018-05-24T00:52:16.861Z,101947.23
2018-05-24T00:54:44.533Z,101944.95
2018-05-24T00:57:12.039Z,101945.19
2018-05-24T00:59:39.607Z,101951.22
2018-05-24T01:02:07.126Z,101956.55
2018-05-24T01:04:34.667Z,101949.55
2018-05-24T01:07:02.181Z,101949.45
2018-05-24T01:09:29.720Z,101949.87
2018-05-24T01:11:57.230Z,101950.70
2018-05-24T01:14:25.054Z,101953.11
2018-05-24T01:16:52.560Z,101951.97
2018-05-24T01:19:20.086Z,101959.15
2018-05-24T01:21:47.710Z,101957.47
2018-05-24T01:24:15.236Z,101955.59
2018-05-24T01:26:42.743Z,101957.06
2018-05-24T01:29:10.281Z,101962.68
2018-05-24T01:31:38.084Z,101963.41
2018-05-24T01:34:05.605Z,101960.38
2018-05-24T01:36:44.890Z,101958.00
2018-05-24T01:39:12.541Z,101964.41
2018-05-24T01:41:40.064Z,101962.95
2018-05-24T01:44:07.614Z,101967.22
2018-05-24T01:46:35.128Z,101966.37
2018-05-24T01:49:02.720Z,101963.88
2018-05-24T01:51:30.275Z,101966.48
2018-05-24T01:53:57.785Z,101961.17
2018-05-24T01:56:25.277Z,101961.56
2018-05-24T01:58:52.853Z,101961.16
2018-05-24T02:01:20.411Z,101956.27
2018-05-24T02:03:47.913Z,101963.66
2018-05-24T02:06:15.707Z,101957.60
2018-05-24T02:08:43.218Z,101955.31
2018-05-24T02:11:10.718Z,101948.45
2018-05-24T02:13:38.245Z,101951.16
2018-05-24T02:16:05.769Z,101950.31
2018-05-24T02:18:33.356Z,101949.69
2018-05-24T02:21:00.890Z,101948.63
2018-05-24T02:23:28.473Z,101948.53
2018-05-24T02:25:56.010Z,101943.42
2018-05-24T02:28:23.599Z,101943.22
2018-05-24T02:30:51.144Z,101944.96
2018-05-24T02:33:18.691Z,101939.64
2018-05-24T02:35:46.315Z,101940.67
2018-05-24T02:38:13.806Z,101931.92
2018-05-24T02:40:41.327Z,101936.00
2018-05-24T02:43:08.854Z,101937.66
2018-05-24T02:45:36.389Z,101929.32
2018-05-24T02:48:04.051Z,101931.29
2018-05-24T02:50:31.607Z,101929.81
2018-05-24T02:52:59.576Z,101930.95
2018-05-24T02:55:27.090Z,101919.50
2018-05-24T02:57:54.651Z,101924.17
2018-05-24T03:00:22.459Z,101916.87
2018-05-24T03:02:49.990Z,101929.55
2018-05-24T03:05:17.592Z,101924.47
2018-05-24T03:07:45.112Z,101932.52
2018-05-24T03:10:12.667Z,101926.80
2018-05-24T03:12:40.464Z,101932.61
2018-05-24T03:15:08.690Z,101932.62
2018-05-24T03:17:36.206Z,101934.39
2018-05-24T03:20:03.757Z,101925.03
2018-05-24T03:22:31.527Z,101930.75
2018-05-24T03:24:59.089Z,101926.16
2018-05-24T03:27:26.640Z,101919.91
2018-05-24T03:29:54.178Z,101921.98
2018-05-24T03:32:21.711Z,101926.96
2018-05-24T03:34:49.353Z,101924.91
2018-05-24T03:37:16.854Z,101926.05
2018-05-24T03:39:44.485Z,101923.03
2018-05-24T03:42:12.024Z,101925.09
2018-05-24T03:44:39.556Z,101927.21
2018-05-24T03:47:07.077Z,101928.24
2018-05-24T03:49:34.702Z,101929.49
2018-05-24T03:52:02.222Z,101926.89
2018-05-24T03:54:29.738Z,101929.50
2018-05-24T03:56:57.270Z,101930.20
2018-05-24T04:02:48.315Z,101936.97
2018-05-24T04:05:16.080Z,101943.92
2018-05-24T04:07:43.578Z,101937.36
2018-05-24T04:10:11.154Z,101934.43
2018-05-24T04:12:38.689Z,101931.95
2018-05-24T04:15:07.468Z,101932.14
2018-05-24T04:17:35.307Z,101927.90
2018-05-24T04:20:02.810Z,101929.31
2018-05-24T04:22:30.331Z,101929.64
2018-05-24T04:24:57.894Z,101934.44
2018-05-24T04:27:25.462Z,101931.41
2018-05-24T04:29:52.981Z,101932.56
2018-05-24T04:32:20.598Z,101931.60
2018-05-24T04:34:48.449Z,101935.36
2018-05-24T04:37:15.969Z,101941.22
2018-05-24T04:39:43.523Z,101946.27
2018-05-24T04:42:11.044Z,101952.94
2018-05-24T04:44:38.549Z,101948.91
2018-05-24T04:47:06.101Z,101946.40
2018-05-24T04:49:33.635Z,101952.34
2018-05-24T04:52:01.475Z,101952.45
2018-05-24T04:54:29.338Z,101956.63
2018-05-24T04:56:57.010Z,101957.55
2018-05-24T04:59:24.535Z,101962.13
2018-05-24T05:01:52.078Z,101958.20
2018-05-24T05:04:19.584Z,101964.64
2018-05-24T05:06:47.135Z,101969.69
2018-05-24T05:09:14.735Z,101966.46
2018-05-24T05:11:42.251Z,101972.52
2018-05-24T05:14:09.775Z,101971.93
2018-05-24T05:16:37.281Z,101968.51
2018-05-24T05:19:04.834Z,101973.63
2018-05-24T05:21:32.607Z,101976.52
2018-05-24T05:24:00.146Z,101978.80
2018-05-24T05:26:27.692Z,101973.20
2018-05-24T05:28:55.485Z,101975.73
2018-05-24T05:31:23.774Z,101972.93
2018-05-24T05:33:51.273Z,101976.88
2018-05-24T05:36:18.780Z,101980.94
2018-05-24T05:38:47.262Z,101976.27
2018-05-24T05:41:14.795Z,101967.31
2018-05-24T05:43:42.320Z,101969.19
2018-05-24T05:46:09.825Z,101973.05
2018-05-24T05:48:37.714Z,101968.77
2018-05-24T05:51:05.290Z,101978.87
2018-05-24T05:53:33.041Z,101979.09
2018-05-24T05:56:00.585Z,101985.73
2018-05-24T05:58:28.103Z,101985.22
2018-05-24T06:00:55.613Z,101991.75
2018-05-24T06:03:23.158Z,101989.27
2018-05-24T06:05:50.681Z,101983.78
2018-05-24T06:08:18.251Z,101986.72
2018-05-24T06:10:45.833Z,101987.35
2018-05-24T06:13:13.646Z,101988.63
2018-05-24T06:15:41.332Z,101984.03
2018-05-24T06:18:08.826Z,101986.94
2018-05-24T06:20:36.772Z,101991.73
2018-05-24T06:23:04.290Z,101984.66
2018-05-24T06:25:31.815Z,101988.39
2018-05-24T06:27:59.455Z,101981.95
2018-05-24T06:30:26.953Z,101976.23
2018-05-24T06:32:54.492Z,101976.64
2018-05-24T06:35:22.011Z,101979.47
2018-05-24T06:37:49.528Z,101971.89
2018-05-24T06:40:17.045Z,101973.41
2018-05-24T06:42:44.610Z,101977.99
2018-05-24T06:45:12.165Z,101968.67
2018-05-24T06:47:39.713Z,101974.55
2018-05-24T06:50:07.281Z,101975.55
2018-05-24T06:52:34.846Z,101976.23
2018-05-24T06:55:02.463Z,101971.13
2018-05-24T06:57:30.594Z,101972.61
2018-05-24T06:59:58.479Z,101967.06
2018-05-24T07:02:26.067Z,101981.92
2018-05-24T07:04:53.704Z,101974.48
2018-05-24T07:07:21.528Z,101976.03
2018-05-24T07:09:49.066Z,101970.78
2018-05-24T07:12:16.649Z,101979.42
2018-05-24T07:14:44.170Z,101981.20
2018-05-24T07:17:13.274Z,101985.73
2018-05-24T07:19:41.343Z,101979.65
2018-05-24T07:22:09.958Z,101985.52
2018-05-24T07:24:38.689Z,101979.06
2018-05-24T07:27:06.704Z,101985.02
2018-05-24T07:29:34.686Z,101978.77
2018-05-24T07:32:05.155Z,101992.45
2018-05-24T07:34:32.700Z,101989.59
2018-05-24T07:37:01.494Z,101990.65
2018-05-24T07:39:29.073Z,101992.09
2018-05-24T07:41:56.677Z,101991.52
2018-05-24T07:44:26.558Z,101984.78
2018-05-24T07:46:54.102Z,101986.48
2018-05-24T07:49:23.199Z,101993.73
2018-05-24T07:51:51.339Z,101992.17
2018-05-24T07:54:23.115Z,101984.58
2018-05-24T07:56:52.015Z,101984.39
2018-05-24T07:59:26.262Z,101986.75
2018-05-24T08:01:53.782Z,101988.91
2018-05-24T08:04:21.377Z,101980.62
2018-05-24T08:06:48.914Z,101976.77
2018-05-24T08:09:16.436Z,101976.77
2018-05-24T08:11:43.990Z,101981.97
2018-05-24T08:14:11.513Z,101978.25
2018-05-24T08:16:39.035Z,101972.89
2018-05-24T08:19:06.739Z,101971.42
2018-05-24T08:21:34.257Z,101973.58
2018-05-24T08:24:03.500Z,101970.39
2018-05-24T08:26:31.004Z,101966.16
2018-05-24T08:28:58.756Z,101972.71
2018-05-24T08:31:26.327Z,101971.52
2018-05-24T08:33:54.187Z,101964.53
2018-05-24T08:36:22.063Z,101966.58
2018-05-24T08:38:49.584Z,101963.38
2018-05-24T08:41:17.109Z,101961.00
2018-05-24T08:43:44.648Z,101954.72
2018-05-24T08:46:12.497Z,101964.05
2018-05-24T08:48:40.082Z,101962.25
2018-05-24T08:51:07.620Z,101951.00
2018-05-24T08:53:35.214Z,101955.33
2018-05-24T08:56:02.761Z,101951.87
2018-05-24T08:58:30.269Z,101955.39
2018-05-24T09:00:58.172Z,101954.86
2018-05-24T09:03:25.691Z,101951.87
2018-05-24T09:05:53.191Z,101954.26
2018-05-24T09:08:20.712Z,101952.61
2018-05-24T09:10:48.223Z,101958.10
2018-05-24T09:13:15.786Z,101956.94
2018-05-24T09:15:43.325Z,101961.92
2018-05-24T09:18:10.831Z,101957.50
2018-05-24T09:20:38.699Z,101955.08
2018-05-24T09:23:06.627Z,101936.48
2018-05-24T09:25:34.222Z,101950.76
2018-05-24T09:28:01.786Z,101938.25
2018-05-24T09:30:29.306Z,101951.74
2018-05-24T09:32:57.182Z,101947.14
2018-05-24T09:35:24.868Z,101951.06
2018-05-24T09:37:52.709Z,101951.80
2018-05-24T09:40:20.269Z,101955.83
2018-05-24T09:42:47.788Z,101945.89
2018-05-24T09:45:15.405Z,101936.10
2018-05-24T09:47:42.925Z,101938.96
2018-05-24T09:50:10.473Z,101936.48
2018-05-24T09:52:38.012Z,101947.09
2018-05-24T09:55:05.594Z,101944.19
2018-05-24T09:57:33.124Z,101945.73
2018-05-24T10:00:00.640Z,101943.70
2018-05-24T10:02:28.168Z,101933.22
2018-05-24T10:04:55.980Z,101938.31
2018-05-24T10:07:23.542Z,101938.60
2018-05-24T10:09:51.090Z,101926.78
2018-05-24T10:12:18.597Z,101937.78
2018-05-24T10:14:46.137Z,101927.67
2018-05-24T10:17:13.662Z,101923.86
2018-05-24T10:19:41.192Z,101929.72
2018-05-24T10:22:08.922Z,101920.30
2018-05-24T10:24:36.420Z,101916.14
2018-05-24T10:27:04.003Z,101913.87
2018-05-24T10:29:31.797Z,101897.50
2018-05-24T10:31:59.401Z,101902.66
2018-05-24T10:34:32.566Z,101906.00
2018-05-24T10:37:00.266Z,101903.25
2018-05-24T10:39:31.990Z,101894.47
2018-05-24T10:41:59.689Z,101900.00
2018-05-24T10:44:27.240Z,101896.69
2018-05-24T10:46:57.223Z,101901.23
2018-05-24T10:49:26.162Z,101898.50
2018-05-24T10:51:53.708Z,101897.84
2018-05-24T10:54:24.446Z,101898.56
2018-05-24T10:56:52.919Z,101887.78
2018-05-24T10:59:21.205Z,101889.08
2018-05-24T11:01:48.794Z,101877.98
2018-05-24T11:04:17.305Z,101887.96
2018-05-24T11:09:17.402Z,101883.44
2018-05-24T11:11:45.115Z,101871.78
2018-05-24T11:14:12.572Z,101872.22
2018-05-24T11:16:41.278Z,101871.09
2018-05-24T11:19:08.808Z,101873.59
2018-05-24T11:21:36.486Z,101873.49
2018-05-24T11:24:03.988Z,101871.56
2018-05-24T11:26:31.491Z,101857.80
2018-05-24T11:28:59.028Z,101860.66
2018-05-24T11:31:26.566Z,101863.19
2018-05-24T11:33:54.092Z,101860.53
2018-05-24T11:36:21.626Z,101861.30
2018-05-24T11:38:49.130Z,101850.42
2018-05-24T11:41:16.669Z,101851.44
2018-05-24T11:43:44.202Z,101852.63
2018-05-24T11:46:11.801Z,101837.92
2018-05-24T11:48:39.323Z,101828.49
2018-05-24T11:51:06.882Z,101838.66
2018-05-24T11:53:34.449Z,101821.69
2018-05-24T11:56:02.000Z,101810.20
2018-05-24T11:58:29.803Z,101827.03
2018-05-24T12:00:57.306Z,101816.47
2018-05-24T12:03:24.816Z,101821.34
2018-05-24T12:05:52.339Z,101813.27
2018-05-24T12:08:19.870Z,101812.38
2018-05-24T12:10:47.388Z,101798.70
2018-05-24T12:13:15.344Z,101797.20
2018-05-24T12:15:42.854Z,101791.98
2018-05-24T12:18:10.687Z,101795.86
2018-05-24T12:20:38.194Z,101802.30
2018-05-24T12:23:05.959Z,101801.97
2018-05-24T12:25:33.498Z,101796.92
2018-05-24T12:28:01.011Z,101787.84
2018-05-24T12:30:28.558Z,101785.38
2018-05-24T12:32:56.074Z,101778.15
2018-05-24T12:35:23.675Z,101777.84
2018-05-24T12:37:51.208Z,101779.22
2018-05-24T12:40:19.035Z,101767.81
2018-05-24T12:42:46.624Z,101778.66
2018-05-24T12:45:14.468Z,101767.69
2018-05-24T12:47:41.990Z,101761.84
2018-05-24T12:50:09.797Z,101773.58
2018-05-24T12:52:37.335Z,101770.04
2018-05-24T12:55:05.721Z,101759.54
2018-05-24T12:57:33.259Z,101770.98
2018-05-24T13:00:00.811Z,101764.09
2018-05-24T13:02:28.341Z,101754.67
2018-05-24T13:04:55.942Z,101753.24
2018-05-24T13:07:23.529Z,101747.95
2018-05-24T13:09:51.053Z,101737.90
2018-05-24T13:12:18.572Z,101731.45
2018-05-24T13:14:46.092Z,101736.36
2018-05-24T13:17:13.606Z,101733.80
2018-05-24T13:19:41.138Z,101732.22
2018-05-24T13:22:08.644Z,101718.95
2018-05-24T13:24:36.206Z,101721.53
2018-05-24T13:27:04.019Z,101714.73
2018-05-24T13:29:31.543Z,101708.72
2018-05-24T13:31:59.453Z,101711.27
2018-05-24T13:34:27.054Z,101707.00
2018-05-24T13:36:54.545Z,101694.37
2018-05-24T13:39:22.059Z,101698.84
2018-05-24T13:41:49.574Z,101690.53
2018-05-24T13:44:17.160Z,101688.34
2018-05-24T13:46:44.844Z,101681.44
2018-05-24T13:49:12.362Z,101682.80
2018-05-24T13:51:39.886Z,101685.09
2018-05-24T13:54:07.383Z,101682.08
2018-05-24T13:56:34.990Z,101682.14
2018-05-24T13:59:02.555Z,101686.61
2018-05-24T14:01:30.383Z,101682.37
2018-05-24T14:03:57.932Z,101683.23
2018-05-24T14:06:25.469Z,101691.00
2018-05-24T14:08:52.998Z,101682.80
2018-05-24T14:11:20.499Z,101688.68
2018-05-24T14:13:48.043Z,101676.39
2018-05-24T14:16:15.567Z,101669.61
2018-05-24T14:18:43.211Z,101672.95
2018-05-24T14:21:10.803Z,101674.33
2018-05-24T14:23:38.325Z,101678.48
2018-05-24T14:26:05.877Z,101670.59
2018-05-24T14:28:33.409Z,101664.88
2018-05-24T14:31:00.921Z,101662.56
2018-05-24T14:33:28.776Z,101665.10
2018-05-24T14:35:56.531Z,101658.37
2018-05-24T14:38:24.059Z,101647.77
2018-05-24T14:40:51.586Z,101660.45
2018-05-24T14:43:19.124Z,101654.98
2018-05-24T14:45:46.659Z,101660.19
2018-05-24T14:48:14.192Z,101654.33
2018-05-24T14:50:41.721Z,101656.84
2018-05-24T14:53:09.560Z,101653.22
2018-05-24T14:55:37.134Z,101660.92
2018-05-24T14:58:04.701Z,101660.87
2018-05-24T15:00:32.222Z,101647.06
2018-05-24T15:02:59.741Z,101661.91
2018-05-24T15:05:27.287Z,101660.55
2018-05-24T15:07:54.797Z,101660.14
2018-05-24T15:10:22.337Z,101650.10
2018-05-24T15:12:49.888Z,101645.29
2018-05-24T15:15:17.715Z,101654.29
2018-05-24T15:17:45.299Z,101650.42
2018-05-24T15:20:12.807Z,101655.09
2018-05-24T15:22:40.337Z,101648.61
2018-05-24T15:25:07.866Z,101646.02
2018-05-24T15:27:35.437Z,101649.74
2018-05-24T15:30:02.971Z,101638.77
2018-05-24T15:32:30.471Z,101635.47
2018-05-24T15:34:58.032Z,101640.97
2018-05-24T15:37:25.590Z,101640.95
2018-05-24T15:39:53.107Z,101646.70
2018-05-24T15:42:20.681Z,101646.08
2018-05-24T15:44:48.542Z,101637.92
2018-05-24T15:47:16.117Z,101634.45
2018-05-24T15:49:43.618Z,101634.48
2018-05-24T15:52:11.136Z,101627.28
2018-05-24T15:54:38.664Z,101624.26
2018-05-24T15:57:06.652Z,101621.22
2018-05-24T15:59:34.523Z,101624.91
2018-05-24T16:02:02.033Z,101623.15
2018-05-24T16:04:29.579Z,101618.68
2018-05-24T16:06:57.532Z,101621.39
2018-05-24T16:09:25.121Z,101607.23
2018-05-24T16:11:52.656Z,101604.56
2018-05-24T16:14:20.188Z,101611.12
2018-05-24T16:16:47.697Z,101607.56
2018-05-24T16:19:15.229Z,101608.83
2018-05-24T16:21:42.744Z,101605.81
2018-05-24T16:24:10.364Z,101606.61
2018-05-24T16:26:37.891Z,101611.66
2018-05-24T16:29:05.406Z,101610.42
2018-05-24T16:31:33.936Z,101613.25
2018-05-24T16:34:01.478Z,101603.93
2018-05-24T16:36:29.010Z,101608.95
2018-05-24T16:38:56.547Z,101613.37
2018-05-24T16:41:24.090Z,101615.02
2018-05-24T16:43:51.655Z,101619.16
2018-05-24T16:46:19.521Z,101611.55
2018-05-24T16:48:47.085Z,101620.21
2018-05-24T16:51:14.714Z,101609.66
2018-05-24T16:53:42.361Z,101625.19
2018-05-24T16:56:10.184Z,101621.51
2018-05-24T16:58:37.734Z,101616.12
2018-05-24T17:01:05.330Z,101613.42
2018-05-24T17:03:32.882Z,101617.20
2018-05-24T17:06:00.428Z,101616.98
2018-05-24T17:08:27.935Z,101617.16
2018-05-24T17:10:55.471Z,101611.94
2018-05-24T17:13:22.999Z,101618.48
2018-05-24T17:15:50.590Z,101616.12
2018-05-24T17:18:18.115Z,101623.19
2018-05-24T17:20:45.976Z,101620.95
2018-05-24T17:23:13.526Z,101623.09
2018-05-24T17:25:41.071Z,101619.72
2018-05-24T17:28:08.581Z,101618.31
2018-05-24T17:30:36.101Z,101612.88
2018-05-24T17:33:03.650Z,101613.37
2018-05-24T17:35:31.195Z,101615.11
2018-05-24T17:37:58.764Z,101616.47
2018-05-24T17:40:26.559Z,101623.47
2018-05-24T17:42:54.532Z,101623.97
2018-05-24T17:45:22.062Z,101619.81
2018-05-24T17:47:49.640Z,101626.80
2018-05-24T17:50:17.231Z,101626.66
2018-05-24T17:52:44.779Z,101628.78
2018-05-24T17:55:12.304Z,101624.31
2018-05-24T17:57:39.876Z,101628.30
2018-05-24T18:00:07.442Z,101630.48
2018-05-24T18:02:34.980Z,101629.08
2018-05-24T18:05:02.781Z,101633.75
2018-05-24T18:07:30.357Z,101635.72
2018-05-24T18:09:57.956Z,101645.94
2018-05-24T18:12:25.499Z,101648.77
2018-05-24T18:14:53.073Z,101643.95
2018-05-24T18:17:20.617Z,101644.27
2018-05-24T18:19:48.262Z,101644.25
2018-05-24T18:22:16.019Z,101647.63
2018-05-24T18:24:43.587Z,101646.17
2018-05-24T18:27:11.136Z,101647.41
2018-05-24T18:29:38.772Z,101646.77
2018-05-24T18:32:06.389Z,101643.37
2018-05-24T18:34:34.225Z,101644.80
2018-05-24T18:37:01.799Z,101644.31
2018-05-24T18:39:29.317Z,101647.89
2018-05-24T18:41:56.868Z,101642.41
2018-05-24T18:44:24.391Z,101646.34
2018-05-24T18:46:52.269Z,101644.19
2018-05-24T18:49:19.863Z,101647.59
2018-05-24T18:51:47.375Z,101642.23
2018-05-24T18:54:14.922Z,101644.36
2018-05-24T18:56:42.436Z,101641.16
2018-05-24T18:59:09.949Z,101639.31
2018-05-24T19:01:37.799Z,101644.72
2018-05-24T19:04:05.324Z,101651.42
2018-05-24T19:06:33.085Z,101651.83
2018-05-24T19:09:00.652Z,101643.98
2018-05-24T19:11:28.459Z,101650.92
2018-05-24T19:13:55.983Z,101651.48
2018-05-24T19:16:23.486Z,101659.78
2018-05-24T19:18:51.021Z,101661.13
2018-05-24T19:21:18.546Z,101667.71
2018-05-24T19:23:46.198Z,101664.28
2018-05-24T19:26:13.701Z,101668.99
2018-05-24T19:28:41.241Z,101672.97
2018-05-24T19:31:08.802Z,101665.27
2018-05-24T19:33:36.454Z,101669.56
2018-05-24T19:36:03.993Z,101665.00
2018-05-24T19:38:31.539Z,101669.92
2018-05-24T19:40:59.389Z,101673.81
2018-05-24T19:43:26.896Z,101670.41
2018-05-24T19:45:54.443Z,101675.38
2018-05-24T19:48:21.937Z,101676.39
2018-05-24T19:50:49.446Z,101677.95
2018-05-24T19:53:17.010Z,101680.27
2018-05-24T19:55:44.528Z,101684.47
2018-05-24T19:58:12.156Z,101686.31
2018-05-24T20:00:39.755Z,101694.45
2018-05-24T20:03:07.487Z,101692.80
2018-05-24T20:05:34.989Z,101686.54
2018-05-24T20:08:02.517Z,101694.72
2018-05-24T20:10:30.051Z,101689.61
2018-05-24T20:12:57.562Z,101692.88
2018-05-24T20:15:25.179Z,101690.17
2018-05-24T20:17:53.005Z,101699.89
2018-05-24T20:20:20.998Z,101701.39
2018-05-24T20:22:48.761Z,101700.70
2018-05-24T20:25:16.558Z,101697.63
2018-05-24T20:27:44.081Z,101708.75
2018-05-24T20:30:11.665Z,101705.96
2018-05-24T20:32:39.231Z,101711.84
2018-05-24T20:35:06.712Z,101710.59
2018-05-24T20:37:34.901Z,101718.61
2018-05-24T20:40:02.436Z,101721.28
2018-05-24T20:42:30.006Z,101715.36
2018-05-24T20:44:57.560Z,101715.02
2018-05-24T20:47:25.056Z,101718.73
2018-05-24T20:49:52.585Z,101714.70
2018-05-24T20:52:20.135Z,101714.59
2018-05-24T20:54:47.945Z,101719.73
2018-05-24T20:57:15.914Z,101718.56
2018-05-24T20:59:43.421Z,101717.73
2018-05-24T21:02:10.990Z,101728.25
2018-05-24T21:04:38.527Z,101725.13
2018-05-24T21:07:06.417Z,101722.70
2018-05-24T21:09:33.992Z,101723.70
2018-05-24T21:12:01.542Z,101725.36
2018-05-24T21:14:29.368Z,101722.56
2018-05-24T21:16:56.868Z,101719.73
2018-05-24T21:19:24.438Z,101717.77
2018-05-24T21:21:51.958Z,101714.38
2018-05-24T21:24:19.815Z,101713.73
2018-05-24T21:26:47.568Z,101716.26
2018-05-24T21:29:15.361Z,101712.70
2018-05-24T21:31:43.300Z,101708.67
2018-05-24T21:34:10.986Z,101709.88
2018-05-24T21:36:38.578Z,101709.49
2018-05-24T21:39:06.095Z,101712.94
2018-05-24T21:41:33.630Z,101709.56
2018-05-24T21:44:01.277Z,101712.28
2018-05-24T21:46:28.885Z,101712.21
2018-05-24T21:48:56.410Z,101712.97
2018-05-24T21:51:23.986Z,101716.70
2018-05-24T21:53:51.592Z,101715.98
2018-05-24T21:56:19.122Z,101713.38
2018-05-24T21:58:46.690Z,101715.19
2018-05-24T22:01:14.551Z,101714.42
2018-05-24T22:03:42.091Z,101718.02
2018-05-24T22:06:09.626Z,101717.13
2018-05-24T22:08:37.179Z,101714.34
2018-05-24T22:11:04.823Z,101719.25
2018-05-24T22:13:32.349Z,101722.08
2018-05-24T22:15:59.911Z,101720.41
2018-05-24T22:18:27.439Z,101724.03
2018-05-24T22:20:54.958Z,101725.12
2018-05-24T22:23:22.502Z,101725.19
2018-05-24T22:25:50.023Z,101718.31
2018-05-24T22:28:17.535Z,101727.30
2018-05-24T22:30:45.065Z,101723.67
2018-05-24T22:33:12.841Z,101724.86
2018-05-24T22:35:40.712Z,101730.75
2018-05-24T22:38:08.327Z,101732.28
2018-05-24T22:40:35.862Z,101737.94
2018-05-24T22:43:03.406Z,101731.67
2018-05-24T22:45:30.928Z,101730.42
2018-05-24T22:47:58.458Z,101733.14
2018-05-24T22:50:25.997Z,101733.51
2018-05-24T22:52:53.829Z,101736.25
2018-05-24T22:55:21.353Z,101731.34
2018-05-24T22:57:49.166Z,101733.03
2018-05-24T23:00:16.673Z,101739.14
2018-05-24T23:02:44.191Z,101743.44
2018-05-24T23:05:11.718Z,101740.83
2018-05-24T23:07:39.243Z,101739.76
2018-05-24T23:10:06.765Z,101742.80
2018-05-24T23:12:34.295Z,101741.34
2018-05-24T23:15:01.838Z,101741.58
2018-05-24T23:17:29.386Z,101741.11
2018-05-24T23:19:56.922Z,101736.62
2018-05-24T23:22:36.208Z,101737.17
2018-05-24T23:25:04.121Z,101734.02
2018-05-24T23:27:31.635Z,101734.07
2018-05-24T23:29:59.205Z,101738.39
2018-05-24T23:32:26.758Z,101737.30
2018-05-24T23:34:54.284Z,101737.63
2018-05-24T23:37:21.805Z,101734.80
2018-05-24T23:39:49.680Z,101740.56
2018-05-24T23:42:17.206Z,101735.72
2018-05-24T23:44:44.722Z,101743.05
2018-05-24T23:47:12.320Z,101741.06
2018-05-24T23:49:39.843Z,101739.86
2018-05-24T23:52:07.357Z,101740.89
2018-05-24T23:54:35.138Z,101744.37
2018-05-24T23:57:02.674Z,101737.06
2018-05-24T23:59:30.173Z,101739.45
